createdAt,value
2019-04-27T00:01:13.646Z,74.59
2019-04-27T00:03:50.440Z,74.80
2019-04-27T00:06:19.560Z,75.00
2019-04-27T00:08:54.640Z,75.04
2019-04-27T00:11:42.207Z,75.09
2019-04-27T00:14:15.052Z,75.28
2019-04-27T00:17:07.007Z,75.50
2019-04-27T00:20:07.373Z,75.48
2019-04-27T00:22:47.560Z,75.60
2019-04-27T00:25:16.638Z,75.83
2019-04-27T00:27:45.616Z,75.92
2019-04-27T00:30:15.411Z,75.98
2019-04-27T00:32:44.485Z,76.00
2019-04-27T00:35:16.657Z,76.01
2019-04-27T00:37:53.606Z,76.04
2019-04-27T00:40:41.679Z,76.05
2019-04-27T00:43:10.786Z,75.93
2019-04-27T00:45:39.858Z,76.04
2019-04-27T00:48:08.921Z,76.04
2019-04-27T00:50:38.013Z,76.00
2019-04-27T00:53:07.074Z,75.77
2019-04-27T00:55:37.724Z,75.85
2019-04-27T00:58:18.128Z,75.95
2019-04-27T01:01:05.132Z,75.96
2019-04-27T01:03:56.240Z,75.81
2019-04-27T01:06:25.328Z,75.84
2019-04-27T01:08:54.388Z,75.82
2019-04-27T01:11:24.959Z,76.12
2019-04-27T01:13:54.016Z,76.09
2019-04-27T01:16:24.215Z,76.06
2019-04-27T01:18:53.552Z,76.07
2019-04-27T01:21:22.630Z,76.01
2019-04-27T01:23:51.696Z,76.08
2019-04-27T01:26:55.247Z,75.97
2019-04-27T01:29:26.283Z,76.00
2019-04-27T01:31:55.661Z,75.86
2019-04-27T01:34:24.722Z,75.69
2019-04-27T01:36:53.731Z,75.81
2019-04-27T01:39:22.964Z,75.96
2019-04-27T01:41:52.046Z,75.86
2019-04-27T01:44:21.104Z,75.84
2019-04-27T01:46:50.187Z,75.91
2019-04-27T01:49:19.499Z,76.04
2019-04-27T01:51:49.245Z,76.04
2019-04-27T01:54:20.088Z,75.96
2019-04-27T01:56:49.368Z,75.96
2019-04-27T01:59:19.906Z,76.05
2019-04-27T02:02:08.778Z,76.02
2019-04-27T02:04:49.315Z,76.08
2019-04-27T02:07:19.203Z,76.10
2019-04-27T02:09:48.721Z,76.15
2019-04-27T02:12:19.249Z,76.20
2019-04-27T02:14:49.134Z,76.30
2019-04-27T02:17:18.799Z,76.28
2019-04-27T02:19:49.386Z,76.29
2019-04-27T02:22:18.814Z,76.30
2019-04-27T02:24:49.254Z,76.37
2019-04-27T02:27:20.600Z,76.42
2019-04-27T02:30:07.598Z,76.48
2019-04-27T02:32:59.322Z,76.38
2019-04-27T02:35:30.047Z,76.41
2019-04-27T02:38:00.479Z,76.53
2019-04-27T02:41:06.236Z,76.64
2019-04-27T02:44:09.817Z,76.74
2019-04-27T02:46:39.614Z,76.79
2019-04-27T02:49:10.554Z,76.88
2019-04-27T02:51:46.577Z,76.97
2019-04-27T02:54:15.633Z,77.25
2019-04-27T02:56:44.682Z,77.19
2019-04-27T02:59:13.778Z,77.21
2019-04-27T03:01:50.291Z,77.26
2019-04-27T03:04:20.579Z,77.41
2019-04-27T03:06:50.131Z,77.47
2019-04-27T03:09:20.520Z,77.63
2019-04-27T03:11:50.188Z,77.85
2019-04-27T03:14:56.615Z,77.77
2019-04-27T03:17:31.277Z,77.72
2019-04-27T03:20:14.941Z,77.67
2019-04-27T03:22:55.674Z,77.70
2019-04-27T03:25:34.664Z,77.64
2019-04-27T03:28:07.443Z,77.71
2019-04-27T03:30:36.757Z,77.70
2019-04-27T03:33:05.897Z,77.73
2019-04-27T03:35:36.692Z,77.78
2019-04-27T03:38:05.773Z,77.68
2019-04-27T03:40:35.226Z,77.63
2019-04-27T03:43:12.604Z,77.64
2019-04-27T03:45:41.685Z,77.58
2019-04-27T03:48:10.745Z,77.80
2019-04-27T03:51:02.651Z,77.85
2019-04-27T03:53:36.300Z,77.73
2019-04-27T03:56:19.974Z,77.70
2019-04-27T03:58:52.354Z,77.85
2019-04-27T04:01:21.414Z,77.73
2019-04-27T04:03:50.526Z,77.85
2019-04-27T04:06:19.647Z,77.78
2019-04-27T04:08:50.257Z,77.79
2019-04-27T04:11:25.312Z,77.70
2019-04-27T04:19:19.711Z,77.68
2019-04-27T04:21:50.390Z,77.68
2019-04-27T04:24:20.095Z,77.61
2019-04-27T04:26:50.303Z,77.65
2019-04-27T04:29:20.427Z,77.66
2019-04-27T04:31:50.390Z,77.58
2019-04-27T04:34:20.098Z,77.71
2019-04-27T04:36:52.469Z,77.78
2019-04-27T04:39:21.575Z,77.62
2019-04-27T04:42:05.919Z,77.70
2019-04-27T04:44:50.319Z,77.69
2019-04-27T04:47:40.761Z,77.76
2019-04-27T04:50:14.756Z,77.91
2019-04-27T04:52:42.441Z,77.88
2019-04-27T04:55:11.134Z,77.87
2019-04-27T04:57:40.246Z,77.94
2019-04-27T05:00:10.052Z,78.07
2019-04-27T05:02:39.811Z,78.19
2019-04-27T05:05:09.510Z,78.21
2019-04-27T05:07:38.902Z,78.34
2019-04-27T05:10:09.074Z,78.42
2019-04-27T05:12:38.776Z,78.62
2019-04-27T05:15:09.109Z,78.57
2019-04-27T05:17:39.928Z,78.38
2019-04-27T05:20:29.449Z,78.49
2019-04-27T05:22:59.433Z,78.48
2019-04-27T05:25:28.787Z,78.57
2019-04-27T05:27:59.563Z,78.56
2019-04-27T05:30:28.865Z,78.48
2019-04-27T05:32:58.563Z,78.37
2019-04-27T05:35:29.663Z,78.42
2019-04-27T05:38:02.526Z,78.52
2019-04-27T05:40:31.173Z,78.49
2019-04-27T05:43:00.353Z,78.44
2019-04-27T05:46:35.741Z,78.51
2019-04-27T05:49:07.135Z,78.64
2019-04-27T05:51:38.169Z,78.58
2019-04-27T05:54:09.023Z,78.74
2019-04-27T05:56:39.073Z,78.93
2019-04-27T05:59:09.154Z,78.96
2019-04-27T06:01:39.080Z,79.07
2019-04-27T06:04:09.024Z,79.10
2019-04-27T06:06:39.879Z,79.38
2019-04-27T06:09:09.608Z,79.47
2019-04-27T06:11:39.955Z,79.50
2019-04-27T06:14:09.771Z,79.50
2019-04-27T06:16:39.438Z,79.48
2019-04-27T06:19:09.620Z,79.51
2019-04-27T06:21:40.105Z,79.48
2019-04-27T06:24:09.409Z,79.45
2019-04-27T06:26:39.917Z,79.43
2019-04-27T06:29:09.574Z,79.34
2019-04-27T06:31:39.693Z,79.23
2019-04-27T06:34:09.809Z,79.25
2019-04-27T06:36:39.130Z,79.16
2019-04-27T06:39:09.773Z,79.08
2019-04-27T06:41:40.073Z,79.14
2019-04-27T06:44:11.293Z,79.10
2019-04-27T06:46:40.567Z,79.15
2019-04-27T06:49:11.131Z,79.18
2019-04-27T06:51:40.436Z,78.93
2019-04-27T06:54:09.534Z,78.56
2019-04-27T06:56:39.038Z,78.41
2019-04-27T06:59:08.721Z,78.45
2019-04-27T07:01:38.980Z,78.31
2019-04-27T07:04:08.829Z,78.40
2019-04-27T07:06:52.838Z,78.69
2019-04-27T07:09:10.845Z,78.50
2019-04-27T07:11:40.044Z,78.39
2019-04-27T07:14:11.533Z,78.00
2019-04-27T07:16:40.265Z,77.72
2019-04-27T07:19:09.562Z,77.52
2019-04-27T07:21:39.971Z,76.88
2019-04-27T07:24:09.220Z,76.73
2019-04-27T07:26:39.052Z,76.26
2019-04-27T07:29:09.576Z,76.12
2019-04-27T07:31:40.104Z,76.10
2019-04-27T07:34:09.553Z,75.49
2019-04-27T07:36:39.293Z,74.17
2019-04-27T07:39:11.501Z,74.02
2019-04-27T07:41:40.248Z,74.19
2019-04-27T07:44:14.850Z,74.36
2019-04-27T07:46:43.936Z,73.95
2019-04-27T07:49:13.036Z,73.25
2019-04-27T07:51:42.112Z,72.58
2019-04-27T07:54:11.223Z,72.54
2019-04-27T07:56:40.309Z,72.01
2019-04-27T07:59:09.416Z,71.65
2019-04-27T08:01:39.304Z,71.55
2019-04-27T08:04:09.171Z,71.49
2019-04-27T08:06:38.752Z,71.35
2019-04-27T08:09:09.415Z,70.73
2019-04-27T08:11:39.197Z,69.95
2019-04-27T08:14:08.845Z,69.62
2019-04-27T08:16:38.794Z,69.13
2019-04-27T08:19:09.941Z,68.83
2019-04-27T08:21:44.282Z,68.69
2019-04-27T08:24:11.229Z,68.08
2019-04-27T08:26:50.964Z,68.06
2019-04-27T08:29:45.115Z,67.38
2019-04-27T08:32:17.069Z,67.31
2019-04-27T08:34:46.187Z,66.53
2019-04-27T08:37:15.277Z,65.75
2019-04-27T08:39:44.403Z,65.25
2019-04-27T08:42:13.498Z,64.81
2019-04-27T08:44:42.610Z,64.33
2019-04-27T08:47:11.697Z,64.01
2019-04-27T08:49:40.774Z,63.40
2019-04-27T08:52:09.872Z,62.64
2019-04-27T08:54:39.535Z,63.43
2019-04-27T08:57:09.679Z,63.18
2019-04-27T08:59:39.422Z,62.91
2019-04-27T09:02:08.875Z,60.55
2019-04-27T09:04:39.435Z,59.54
2019-04-27T09:07:26.696Z,60.14
2019-04-27T09:09:59.907Z,59.60
2019-04-27T09:12:53.440Z,58.14
2019-04-27T09:15:44.179Z,57.80
2019-04-27T09:18:14.908Z,58.07
2019-04-27T09:20:50.097Z,57.33
2019-04-27T09:23:19.156Z,57.74
2019-04-27T09:25:49.602Z,55.59
2019-04-27T09:28:20.278Z,54.50
2019-04-27T09:30:49.877Z,55.68
2019-04-27T09:33:22.176Z,55.27
2019-04-27T09:35:50.466Z,54.45
2019-04-27T09:38:19.543Z,54.49
2019-04-27T09:40:48.643Z,53.71
2019-04-27T09:43:17.726Z,52.48
2019-04-27T09:45:47.247Z,51.87
2019-04-27T09:48:17.640Z,52.99
2019-04-27T09:50:46.754Z,53.42
2019-04-27T09:53:15.912Z,52.67
2019-04-27T09:55:46.775Z,52.84
2019-04-27T09:58:16.024Z,53.33
2019-04-27T10:00:48.227Z,53.66
2019-04-27T10:03:17.317Z,52.59
2019-04-27T10:05:46.402Z,51.57
2019-04-27T10:08:16.983Z,50.52
2019-04-27T10:10:47.949Z,47.95
2019-04-27T10:13:17.233Z,47.09
2019-04-27T10:15:46.295Z,47.36
2019-04-27T10:18:16.311Z,46.89
2019-04-27T10:20:56.959Z,47.01
2019-04-27T10:23:16.364Z,47.61
2019-04-27T10:25:45.839Z,47.92
2019-04-27T10:28:14.990Z,47.39
2019-04-27T10:30:45.726Z,45.88
2019-04-27T10:33:16.105Z,46.61
2019-04-27T10:35:47.241Z,47.75
2019-04-27T10:38:17.325Z,48.40
2019-04-27T10:40:46.535Z,47.96
2019-04-27T10:43:15.762Z,47.92
2019-04-27T10:45:46.247Z,47.47
2019-04-27T10:48:16.373Z,48.13
2019-04-27T10:50:46.755Z,48.49
2019-04-27T10:53:16.826Z,49.23
2019-04-27T10:55:46.396Z,48.64
2019-04-27T10:58:15.722Z,49.05
2019-04-27T11:00:49.563Z,48.70
2019-04-27T11:03:22.673Z,49.01
2019-04-27T11:06:22.895Z,49.31
2019-04-27T11:08:51.985Z,49.20
2019-04-27T11:11:21.049Z,48.70
2019-04-27T11:13:50.139Z,49.09
2019-04-27T11:16:19.221Z,48.60
2019-04-27T11:18:48.326Z,46.11
2019-04-27T11:21:17.377Z,44.90
2019-04-27T11:23:46.461Z,45.22
2019-04-27T11:26:16.055Z,44.74
2019-04-27T11:28:46.295Z,40.80
2019-04-27T11:31:17.224Z,40.75
2019-04-27T11:33:46.542Z,40.20
2019-04-27T11:36:33.433Z,41.92
2019-04-27T11:39:04.612Z,39.25
2019-04-27T11:41:33.695Z,38.02
2019-04-27T11:44:02.773Z,37.51
2019-04-27T11:46:31.827Z,38.74
2019-04-27T11:49:00.960Z,38.47
2019-04-27T11:51:30.027Z,37.25
2019-04-27T11:53:59.133Z,37.18
2019-04-27T11:56:28.185Z,37.10
2019-04-27T11:58:57.282Z,37.71
2019-04-27T12:01:27.060Z,36.49
2019-04-27T12:03:56.132Z,36.78
2019-04-27T12:06:25.840Z,35.84
2019-04-27T12:08:55.045Z,35.62
2019-04-27T12:11:26.005Z,35.72
2019-04-27T12:13:56.167Z,36.24
2019-04-27T12:16:26.205Z,35.31
2019-04-27T12:18:56.336Z,35.76
2019-04-27T12:21:25.594Z,36.20
2019-04-27T12:23:54.681Z,37.10
2019-04-27T12:26:45.545Z,37.02
2019-04-27T12:29:17.479Z,37.16
2019-04-27T12:31:49.007Z,37.60
2019-04-27T12:34:17.291Z,38.61
2019-04-27T12:36:46.364Z,39.75
2019-04-27T12:39:15.693Z,39.15
2019-04-27T12:41:46.215Z,38.12
2019-04-27T12:44:16.050Z,38.30
2019-04-27T12:46:45.117Z,38.57
2019-04-27T12:49:16.023Z,39.41
2019-04-27T12:51:45.630Z,39.22
2019-04-27T12:54:39.678Z,39.12
2019-04-27T12:57:21.032Z,39.95
2019-04-27T12:59:59.477Z,40.44
2019-04-27T13:02:31.306Z,40.83
2019-04-27T13:05:00.379Z,41.07
2019-04-27T13:07:29.447Z,41.21
2019-04-27T13:09:58.560Z,41.73
2019-04-27T13:12:27.661Z,42.05
2019-04-27T13:14:56.756Z,42.16
2019-04-27T13:17:26.532Z,42.87
2019-04-27T13:19:56.144Z,42.58
2019-04-27T13:22:25.324Z,42.36
2019-04-27T13:24:56.458Z,43.00
2019-04-27T13:27:26.866Z,43.54
2019-04-27T13:29:57.401Z,43.87
2019-04-27T13:32:26.662Z,44.46
2019-04-27T13:34:56.694Z,45.82
2019-04-27T13:37:43.016Z,46.71
2019-04-27T13:40:16.840Z,47.04
2019-04-27T13:42:58.562Z,46.33
2019-04-27T13:45:37.420Z,41.84
2019-04-27T13:48:40.650Z,41.84
2019-04-27T13:51:12.808Z,43.10
2019-04-27T13:53:41.870Z,42.92
2019-04-27T13:56:17.565Z,43.41
2019-04-27T13:58:46.733Z,42.83
2019-04-27T14:01:15.806Z,43.80
2019-04-27T14:03:45.212Z,46.81
2019-04-27T14:06:14.341Z,49.12
2019-04-27T14:08:43.411Z,51.04
2019-04-27T14:11:12.492Z,52.06
2019-04-27T14:13:41.549Z,52.50
2019-04-27T14:16:10.653Z,51.18
2019-04-27T14:18:39.729Z,50.72
2019-04-27T14:21:09.426Z,48.75
2019-04-27T14:23:38.764Z,50.63
2019-04-27T14:26:08.801Z,51.28
2019-04-27T14:28:38.066Z,51.62
2019-04-27T14:31:08.885Z,50.67
2019-04-27T14:33:39.738Z,48.88
2019-04-27T14:36:08.999Z,47.93
2019-04-27T14:38:38.066Z,47.58
2019-04-27T14:41:09.053Z,46.37
2019-04-27T14:43:38.303Z,44.69
2019-04-27T14:46:08.153Z,44.16
2019-04-27T14:48:39.195Z,44.36
2019-04-27T14:51:09.286Z,44.90
2019-04-27T14:53:38.653Z,45.26
2019-04-27T14:56:08.860Z,45.36
2019-04-27T14:58:38.014Z,44.84
2019-04-27T15:01:08.221Z,45.23
2019-04-27T15:03:37.343Z,45.17
2019-04-27T15:06:06.407Z,45.30
2019-04-27T15:08:38.413Z,45.31
2019-04-27T15:11:10.491Z,44.96
2019-04-27T15:13:37.974Z,45.37
2019-04-27T15:16:08.338Z,44.83
2019-04-27T15:18:43.664Z,45.06
2019-04-27T15:21:12.458Z,45.08
2019-04-27T15:23:41.547Z,44.51
2019-04-27T15:26:10.628Z,44.58
2019-04-27T15:28:44.835Z,44.92
2019-04-27T15:31:29.458Z,45.43
2019-04-27T15:34:17.676Z,46.63
2019-04-27T15:37:18.295Z,48.68
2019-04-27T15:40:11.374Z,52.04
2019-04-27T15:42:51.230Z,54.11
2019-04-27T15:45:15.952Z,56.02
2019-04-27T15:47:49.286Z,55.59
2019-04-27T15:50:18.243Z,57.09
2019-04-27T15:52:48.744Z,58.73
2019-04-27T15:55:31.656Z,58.84
2019-04-27T15:57:50.339Z,59.23
2019-04-27T16:00:28.834Z,59.68
2019-04-27T16:02:57.961Z,60.22
2019-04-27T16:05:28.722Z,61.09
2019-04-27T16:07:59.215Z,61.96
2019-04-27T16:10:32.940Z,62.77
2019-04-27T16:13:06.368Z,63.68
2019-04-27T16:15:31.229Z,64.26
2019-04-27T16:18:00.336Z,64.66
2019-04-27T16:20:33.786Z,64.85
2019-04-27T16:23:03.189Z,64.28
2019-04-27T16:25:32.776Z,64.33
2019-04-27T16:28:04.723Z,64.67
2019-04-27T16:30:32.648Z,64.54
2019-04-27T16:33:01.741Z,64.83
2019-04-27T16:35:30.825Z,64.70
2019-04-27T16:38:09.716Z,64.56
2019-04-27T16:40:39.004Z,65.00
2019-04-27T16:43:08.995Z,65.41
2019-04-27T16:45:38.781Z,65.78
2019-04-27T16:48:09.157Z,66.01
2019-04-27T16:50:39.050Z,66.36
2019-04-27T16:53:10.713Z,66.26
2019-04-27T16:55:39.121Z,66.01
2019-04-27T16:58:09.684Z,65.17
2019-04-27T17:00:40.930Z,65.16
2019-04-27T17:03:10.057Z,63.97
2019-04-27T17:05:39.193Z,63.29
2019-04-27T17:08:14.391Z,63.06
2019-04-27T17:10:39.201Z,63.00
2019-04-27T17:13:13.395Z,62.88
2019-04-27T17:16:05.802Z,62.56
2019-04-27T17:18:42.411Z,62.50
2019-04-27T17:21:18.860Z,62.73
2019-04-27T17:23:42.514Z,62.95
2019-04-27T17:26:21.241Z,62.98
2019-04-27T17:28:50.570Z,63.06
2019-04-27T17:31:21.510Z,63.10
2019-04-27T17:33:55.782Z,63.32
2019-04-27T17:36:24.872Z,63.73
2019-04-27T17:38:53.943Z,63.74
2019-04-27T17:41:23.046Z,63.86
2019-04-27T17:43:52.155Z,63.33
2019-04-27T17:46:22.039Z,62.85
2019-04-27T17:48:51.250Z,62.54
2019-04-27T17:51:20.358Z,62.20
2019-04-27T17:53:49.990Z,61.95
2019-04-27T17:56:19.323Z,62.38
2019-04-27T17:58:48.754Z,62.21
2019-04-27T18:01:19.095Z,62.17
2019-04-27T18:03:58.512Z,62.53
2019-04-27T18:06:24.370Z,62.70
2019-04-27T18:08:54.978Z,63.07
2019-04-27T18:11:21.681Z,63.62
2019-04-27T18:13:51.242Z,64.15
2019-04-27T18:16:23.724Z,64.45
2019-04-27T18:19:00.094Z,65.06
2019-04-27T18:21:33.940Z,65.23
2019-04-27T18:24:08.669Z,65.42
2019-04-27T18:27:02.980Z,65.82
2019-04-27T18:29:30.803Z,66.19
2019-04-27T18:31:58.504Z,66.31
2019-04-27T18:34:28.627Z,66.45
2019-04-27T18:36:57.846Z,66.62
2019-04-27T18:39:26.919Z,66.74
2019-04-27T18:41:55.943Z,67.08
2019-04-27T18:44:29.267Z,67.23
2019-04-27T18:46:58.858Z,67.43
2019-04-27T18:49:45.616Z,67.42
2019-04-27T18:52:40.866Z,67.60
2019-04-27T18:55:10.962Z,67.57
2019-04-27T18:57:38.690Z,67.94
2019-04-27T19:00:11.085Z,68.24
2019-04-27T19:02:40.181Z,68.50
2019-04-27T19:05:09.558Z,68.53
2019-04-27T19:07:38.655Z,68.55
2019-04-27T19:10:09.061Z,68.73
2019-04-27T19:12:39.433Z,68.85
2019-04-27T19:15:08.765Z,66.95
2019-04-27T19:17:38.677Z,66.69
2019-04-27T19:20:10.489Z,66.12
2019-04-27T19:22:39.146Z,66.65
2019-04-27T19:25:10.791Z,66.92
2019-04-27T19:27:52.571Z,67.08
2019-04-27T19:30:28.771Z,67.29
2019-04-27T19:32:57.874Z,67.42
2019-04-27T19:35:28.669Z,67.64
2019-04-27T19:37:58.966Z,67.85
2019-04-27T19:40:29.055Z,67.78
2019-04-27T19:42:58.834Z,67.70
2019-04-27T19:45:29.205Z,67.74
2019-04-27T19:47:58.475Z,68.21
2019-04-27T19:50:28.565Z,68.43
2019-04-27T19:52:58.720Z,68.55
2019-04-27T19:55:28.264Z,68.60
2019-04-27T19:57:59.451Z,68.58
2019-04-27T20:00:45.727Z,68.73
2019-04-27T20:03:19.288Z,68.72
2019-04-27T20:05:48.549Z,68.80
2019-04-27T20:08:21.519Z,68.76
2019-04-27T20:10:50.527Z,68.70
2019-04-27T20:13:19.610Z,68.93
2019-04-27T20:15:48.682Z,68.89
2019-04-27T20:18:17.778Z,69.06
2019-04-27T20:20:46.844Z,69.28
2019-04-27T20:23:15.930Z,69.63
2019-04-27T20:25:44.996Z,69.87
2019-04-27T20:28:14.080Z,69.94
2019-04-27T20:30:43.175Z,70.25
2019-04-27T20:33:12.267Z,70.04
2019-04-27T20:35:42.682Z,70.11
2019-04-27T20:38:12.915Z,70.45
2019-04-27T20:40:42.079Z,70.37
2019-04-27T20:43:11.171Z,70.69
2019-04-27T20:45:41.359Z,70.87
2019-04-27T20:48:11.215Z,70.98
2019-04-27T20:50:41.218Z,71.05
2019-04-27T20:53:14.286Z,70.98
2019-04-27T20:55:43.359Z,70.74
2019-04-27T20:58:12.744Z,70.50
2019-04-27T21:00:41.936Z,70.53
2019-04-27T21:03:23.340Z,70.48
2019-04-27T21:06:11.198Z,70.41
2019-04-27T21:08:41.269Z,70.24
2019-04-27T21:11:11.858Z,70.36
2019-04-27T21:13:41.038Z,70.70
2019-04-27T21:16:10.730Z,70.74
2019-04-27T21:18:41.965Z,70.70
2019-04-27T21:21:11.471Z,70.76
2019-04-27T21:23:41.403Z,70.86
2019-04-27T21:26:10.614Z,70.89
2019-04-27T21:28:41.558Z,70.98
2019-04-27T21:31:12.450Z,71.10
2019-04-27T21:33:41.272Z,70.89
2019-04-27T21:36:11.711Z,71.08
2019-04-27T21:38:42.803Z,71.15
2019-04-27T21:41:11.779Z,71.28
2019-04-27T21:43:42.108Z,70.98
2019-04-27T21:46:11.700Z,71.07
2019-04-27T21:48:41.514Z,71.10
2019-04-27T21:51:11.863Z,71.21
2019-04-27T21:54:00.000Z,71.13
2019-04-27T21:56:29.096Z,71.39
2019-04-27T21:58:58.164Z,71.54
2019-04-27T22:01:35.231Z,71.56
2019-04-27T22:04:04.526Z,71.70
2019-04-27T22:06:33.625Z,71.67
2019-04-27T22:09:02.692Z,71.69
2019-04-27T22:11:32.026Z,71.78
2019-04-27T22:14:01.420Z,71.82
2019-04-27T22:16:31.499Z,71.86
2019-04-27T22:19:01.963Z,71.87
2019-04-27T22:21:31.661Z,71.87
2019-04-27T22:24:22.663Z,71.79
2019-04-27T22:26:51.945Z,71.70
2019-04-27T22:29:22.193Z,71.92
2019-04-27T22:31:51.761Z,72.01
2019-04-27T22:34:21.662Z,72.19
2019-04-27T22:36:50.759Z,72.23
2019-04-27T22:39:31.477Z,72.08
2019-04-27T22:42:18.323Z,72.25
2019-04-27T22:44:52.483Z,72.23
2019-04-27T22:47:21.660Z,72.21
2019-04-27T22:49:50.734Z,72.19
2019-04-27T22:52:21.763Z,72.05
2019-04-27T22:54:51.362Z,72.18
2019-04-27T22:57:32.247Z,72.35
2019-04-27T23:00:21.985Z,72.38
2019-04-27T23:02:53.925Z,72.62
2019-04-27T23:05:23.045Z,72.71
2019-04-27T23:07:52.126Z,72.48
2019-04-27T23:10:21.412Z,72.62
2019-04-27T23:12:51.027Z,72.66
2019-04-27T23:15:22.198Z,72.58
2019-04-27T23:17:58.684Z,72.79
2019-04-27T23:20:27.854Z,72.63
2019-04-27T23:22:56.964Z,72.36
2019-04-27T23:25:26.042Z,72.56
2019-04-27T23:27:55.133Z,72.57
2019-04-27T23:30:58.520Z,72.59
2019-04-27T23:33:27.596Z,72.82
2019-04-27T23:35:56.601Z,72.75
2019-04-27T23:38:25.688Z,73.07
2019-04-27T23:40:54.758Z,73.19
2019-04-27T23:43:23.844Z,73.10
2019-04-27T23:45:53.486Z,73.27
2019-04-27T23:48:24.839Z,73.52
2019-04-27T23:50:56.439Z,73.65
2019-04-27T23:53:29.549Z,73.76
2019-04-27T23:55:58.620Z,73.72
2019-04-27T23:58:27.721Z,73.68
